UTA280 USSS-USTR
Flight info
| Callsign | UTA280 |
|---|---|
| Flight time | 0h 55m |
| Altitude | 13000 |
| Route | N0240F130 ANATU P135 GIBUL P983 GINPA |
| Aircraft | AN24/M-I/L |
Departure
| Time | 2026-04-23 12:44 |
|---|---|
| Airport | Koltsovo Airport (USSS) |
Arrival
| Time | 2026-04-23 13:39 |
|---|---|
| Airport | Roshchino International Airport (USTR) |
| Time | Latitude | Longitude | Altitude | Speed | Heading |
|---|---|---|---|---|---|
| 2026-04-23 12:04 | 56.74798 | 60.80538 | 778 ft | 0 kts | 1° |
| 2026-04-23 12:33 | 56.74803 | 60.80538 | 778 ft | 2 kts | 1° |
| 2026-04-23 12:33 | 56.74835 | 60.80532 | 778 ft | 7 kts | 335° |
| 2026-04-23 12:33 | 56.74851 | 60.80407 | 778 ft | 10 kts | 270° |
| 2026-04-23 12:34 | 56.74851 | 60.80258 | 778 ft | 16 kts | 269° |
| 2026-04-23 12:34 | 56.74851 | 60.80080 | 778 ft | 12 kts | 269° |
| 2026-04-23 12:34 | 56.74851 | 60.79922 | 778 ft | 11 kts | 272° |
| 2026-04-23 12:34 | 56.74852 | 60.79740 | 778 ft | 16 kts | 270° |
| 2026-04-23 12:35 | 56.74852 | 60.79552 | 778 ft | 12 kts | 271° |
| 2026-04-23 12:35 | 56.74852 | 60.79315 | 778 ft | 18 kts | 271° |
| 2026-04-23 12:35 | 56.74795 | 60.79189 | 778 ft | 18 kts | 180° |
| 2026-04-23 12:35 | 56.74667 | 60.79189 | 778 ft | 16 kts | 176° |
| 2026-04-23 12:36 | 56.74564 | 60.79186 | 778 ft | 12 kts | 179° |
| 2026-04-23 12:36 | 56.74474 | 60.79173 | 778 ft | 15 kts | 191° |
| 2026-04-23 12:36 | 56.74385 | 60.79143 | 778 ft | 10 kts | 188° |
| 2026-04-23 12:36 | 56.74326 | 60.79125 | 778 ft | 6 kts | 190° |
| 2026-04-23 12:37 | 56.74311 | 60.79120 | 778 ft | 0 kts | 191° |
| 2026-04-23 12:41 | 56.74283 | 60.79110 | 778 ft | 3 kts | 190° |
| 2026-04-23 12:41 | 56.74195 | 60.79106 | 778 ft | 13 kts | 139° |
| 2026-04-23 12:41 | 56.74179 | 60.79236 | 778 ft | 9 kts | 95° |
| 2026-04-23 12:41 | 56.74176 | 60.79312 | 778 ft | 0 kts | 94° |
| 2026-04-23 12:42 | 56.74176 | 60.79314 | 778 ft | 4 kts | 94° |
| 2026-04-23 12:43 | 56.74153 | 60.79887 | 778 ft | 81 kts | 95° |
| 2026-04-23 12:43 | 56.74103 | 60.81224 | 784 ft | 125 kts | 98° |
| 2026-04-23 12:43 | 56.74025 | 60.82946 | 958 ft | 145 kts | 101° |
| 2026-04-23 12:43 | 56.73893 | 60.84817 | 1265 ft | 155 kts | 103° |
| 2026-04-23 12:44 | 56.73727 | 60.86868 | 1454 ft | 173 kts | 104° |
| 2026-04-23 12:44 | 56.73569 | 60.89079 | 1774 ft | 180 kts | 103° |
| 2026-04-23 12:44 | 56.73421 | 60.91294 | 2233 ft | 177 kts | 101° |
| 2026-04-23 12:44 | 56.73264 | 60.93523 | 2552 ft | 180 kts | 103° |
| 2026-04-23 12:45 | 56.73086 | 60.95809 | 2818 ft | 186 kts | 102° |
| 2026-04-23 12:45 | 56.72938 | 60.98186 | 3115 ft | 191 kts | 94° |
| 2026-04-23 12:45 | 56.73218 | 61.00589 | 3298 ft | 204 kts | 68° |
| 2026-04-23 12:45 | 56.74083 | 61.02634 | 3595 ft | 206 kts | 40° |
| 2026-04-23 12:46 | 56.75312 | 61.03830 | 4031 ft | 198 kts | 14° |
| 2026-04-23 12:46 | 56.76665 | 61.04009 | 4386 ft | 193 kts | 348° |
| 2026-04-23 12:46 | 56.77870 | 61.03179 | 4711 ft | 187 kts | 321° |
| 2026-04-23 12:46 | 56.78742 | 61.01494 | 4956 ft | 184 kts | 297° |
| 2026-04-23 12:47 | 56.79231 | 60.99410 | 5284 ft | 178 kts | 282° |
| 2026-04-23 12:47 | 56.79770 | 60.97349 | 5617 ft | 180 kts | 293° |
| 2026-04-23 12:47 | 56.80348 | 60.95343 | 5900 ft | 181 kts | 292° |
| 2026-04-23 12:47 | 56.80927 | 60.93330 | 6220 ft | 179 kts | 293° |
| 2026-04-23 12:48 | 56.81603 | 60.91409 | 6500 ft | 185 kts | 308° |
| 2026-04-23 12:48 | 56.82689 | 60.90122 | 6849 ft | 190 kts | 335° |
| 2026-04-23 12:48 | 56.84029 | 60.89876 | 7065 ft | 202 kts | 4° |
| 2026-04-23 12:48 | 56.85386 | 60.90599 | 7352 ft | 204 kts | 19° |
| 2026-04-23 12:49 | 56.86678 | 60.91593 | 7711 ft | 201 kts | 21° |
| 2026-04-23 12:49 | 56.87951 | 60.92610 | 7961 ft | 204 kts | 22° |
| 2026-04-23 12:49 | 56.89166 | 60.94030 | 8148 ft | 211 kts | 45° |
| 2026-04-23 12:49 | 56.89961 | 60.96217 | 8475 ft | 205 kts | 70° |
| 2026-04-23 12:50 | 56.90477 | 60.98612 | 8740 ft | 205 kts | 71° |
| 2026-04-23 12:50 | 56.91010 | 61.01033 | 9001 ft | 206 kts | 71° |
| 2026-04-23 12:50 | 56.91552 | 61.03489 | 9293 ft | 206 kts | 71° |
| 2026-04-23 12:50 | 56.92078 | 61.05868 | 9607 ft | 203 kts | 71° |
| 2026-04-23 12:51 | 56.92611 | 61.08262 | 9865 ft | 204 kts | 70° |
| 2026-04-23 12:51 | 56.93173 | 61.10640 | 10120 ft | 205 kts | 69° |
| 2026-04-23 12:51 | 56.93755 | 61.13050 | 10369 ft | 206 kts | 69° |
| 2026-04-23 12:51 | 56.94331 | 61.15410 | 10621 ft | 207 kts | 69° |
| 2026-04-23 12:52 | 56.94901 | 61.17833 | 10876 ft | 206 kts | 70° |
| 2026-04-23 12:52 | 56.95462 | 61.20254 | 11116 ft | 207 kts | 70° |
| 2026-04-23 12:52 | 56.96023 | 61.22674 | 11369 ft | 207 kts | 70° |
| 2026-04-23 12:52 | 56.96583 | 61.25092 | 11601 ft | 208 kts | 70° |
| 2026-04-23 12:53 | 56.97149 | 61.27546 | 11829 ft | 209 kts | 70° |
| 2026-04-23 12:53 | 56.97710 | 61.29978 | 12068 ft | 209 kts | 70° |
| 2026-04-23 12:53 | 56.98291 | 61.32419 | 12296 ft | 209 kts | 69° |
| 2026-04-23 12:53 | 56.98880 | 61.34848 | 12491 ft | 211 kts | 69° |
| 2026-04-23 12:54 | 56.99475 | 61.37316 | 12661 ft | 214 kts | 69° |
| 2026-04-23 12:54 | 57.00093 | 61.39892 | 12613 ft | 227 kts | 69° |
| 2026-04-23 12:54 | 57.00735 | 61.42559 | 12634 ft | 232 kts | 69° |
| 2026-04-23 12:54 | 57.01397 | 61.45309 | 12643 ft | 237 kts | 69° |
| 2026-04-23 12:55 | 57.02059 | 61.48083 | 12625 ft | 241 kts | 69° |
| 2026-04-23 12:55 | 57.02743 | 61.50915 | 12653 ft | 243 kts | 68° |
| 2026-04-23 12:55 | 57.03424 | 61.53755 | 12646 ft | 245 kts | 68° |
| 2026-04-23 12:55 | 57.04107 | 61.56614 | 12616 ft | 247 kts | 68° |
| 2026-04-23 12:56 | 57.04798 | 61.59513 | 12639 ft | 247 kts | 68° |
| 2026-04-23 12:56 | 57.05484 | 61.62397 | 12639 ft | 249 kts | 68° |
| 2026-04-23 12:56 | 57.06185 | 61.65337 | 12611 ft | 250 kts | 69° |
| 2026-04-23 12:56 | 57.06873 | 61.68226 | 12613 ft | 248 kts | 69° |
| 2026-04-23 12:57 | 57.07558 | 61.71105 | 12633 ft | 247 kts | 69° |
| 2026-04-23 12:57 | 57.08252 | 61.74026 | 12610 ft | 249 kts | 69° |
| 2026-04-23 12:57 | 57.08938 | 61.76917 | 12621 ft | 248 kts | 69° |
| 2026-04-23 12:57 | 57.09623 | 61.79810 | 12631 ft | 248 kts | 69° |
| 2026-04-23 12:58 | 57.10316 | 61.82736 | 12608 ft | 249 kts | 69° |
| 2026-04-23 12:58 | 57.11004 | 61.85651 | 12626 ft | 248 kts | 69° |
| 2026-04-23 12:58 | 57.11684 | 61.88543 | 12622 ft | 248 kts | 69° |
| 2026-04-23 12:58 | 57.12325 | 61.91460 | 12645 ft | 247 kts | 71° |
| 2026-04-23 12:59 | 57.12956 | 61.94427 | 12617 ft | 247 kts | 70° |
| 2026-04-23 12:59 | 57.13579 | 61.97339 | 12607 ft | 245 kts | 71° |
| 2026-04-23 12:59 | 57.14165 | 62.00275 | 12629 ft | 242 kts | 75° |
| 2026-04-23 12:59 | 57.14646 | 62.03195 | 12654 ft | 241 kts | 76° |
| 2026-04-23 13:00 | 57.15116 | 62.06159 | 12634 ft | 243 kts | 77° |
| 2026-04-23 13:00 | 57.15595 | 62.09174 | 12625 ft | 245 kts | 76° |
| 2026-04-23 13:00 | 57.16067 | 62.12166 | 12613 ft | 246 kts | 76° |
| 2026-04-23 13:00 | 57.16545 | 62.15183 | 12636 ft | 246 kts | 76° |
| 2026-04-23 13:01 | 57.17025 | 62.18233 | 12663 ft | 246 kts | 76° |
| 2026-04-23 13:01 | 57.17495 | 62.21218 | 12655 ft | 247 kts | 76° |
| 2026-04-23 13:01 | 57.17980 | 62.24307 | 12633 ft | 249 kts | 76° |
| 2026-04-23 13:01 | 57.18454 | 62.27331 | 12652 ft | 249 kts | 76° |
| 2026-04-23 13:02 | 57.18937 | 62.30417 | 12646 ft | 250 kts | 76° |
| 2026-04-23 13:02 | 57.19411 | 62.33453 | 12686 ft | 249 kts | 76° |
| 2026-04-23 13:02 | 57.19891 | 62.36534 | 12631 ft | 253 kts | 76° |
| 2026-04-23 13:02 | 57.20382 | 62.39686 | 12629 ft | 252 kts | 76° |
| 2026-04-23 13:03 | 57.20856 | 62.42728 | 12722 ft | 249 kts | 76° |
| 2026-04-23 13:03 | 57.21331 | 62.45794 | 12665 ft | 252 kts | 76° |
| 2026-04-23 13:03 | 57.21818 | 62.48944 | 12614 ft | 254 kts | 76° |
| 2026-04-23 13:03 | 57.22295 | 62.52066 | 12702 ft | 250 kts | 77° |
| 2026-04-23 13:04 | 57.22745 | 62.55151 | 12705 ft | 251 kts | 77° |
| 2026-04-23 13:04 | 57.23193 | 62.58276 | 12547 ft | 258 kts | 78° |
| 2026-04-23 13:04 | 57.23653 | 62.61471 | 12690 ft | 251 kts | 77° |
| 2026-04-23 13:04 | 57.24098 | 62.64552 | 12737 ft | 250 kts | 78° |
| 2026-04-23 13:05 | 57.24542 | 62.67664 | 12575 ft | 257 kts | 78° |
| 2026-04-23 13:05 | 57.24996 | 62.70845 | 12642 ft | 253 kts | 78° |
| 2026-04-23 13:05 | 57.25437 | 62.73943 | 12750 ft | 248 kts | 78° |
| 2026-04-23 13:05 | 57.25879 | 62.77063 | 12596 ft | 256 kts | 78° |
| 2026-04-23 13:06 | 57.26775 | 62.83371 | 12750 ft | 249 kts | 78° |
| 2026-04-23 13:06 | 57.27208 | 62.86442 | 12633 ft | 255 kts | 78° |
| 2026-04-23 13:06 | 57.27661 | 62.89665 | 12568 ft | 257 kts | 78° |
| 2026-04-23 13:07 | 57.28106 | 62.92780 | 12730 ft | 250 kts | 78° |
| 2026-04-23 13:07 | 57.28562 | 62.95852 | 12677 ft | 253 kts | 77° |
| 2026-04-23 13:07 | 57.29045 | 62.99072 | 12543 ft | 259 kts | 77° |
| 2026-04-23 13:07 | 57.29515 | 63.02197 | 12685 ft | 252 kts | 77° |
| 2026-04-23 13:08 | 57.29979 | 63.05295 | 12717 ft | 251 kts | 77° |
| 2026-04-23 13:08 | 57.30448 | 63.08440 | 12544 ft | 259 kts | 77° |
| 2026-04-23 13:08 | 57.30923 | 63.11625 | 12653 ft | 253 kts | 77° |
| 2026-04-23 13:08 | 57.31391 | 63.14756 | 12737 ft | 250 kts | 77° |
| 2026-04-23 13:09 | 57.31851 | 63.17849 | 12669 ft | 254 kts | 77° |
| 2026-04-23 13:09 | 57.32315 | 63.20990 | 12654 ft | 254 kts | 77° |
| 2026-04-23 13:09 | 57.32783 | 63.24151 | 12671 ft | 254 kts | 77° |
| 2026-04-23 13:09 | 57.33246 | 63.27288 | 12661 ft | 255 kts | 77° |
| 2026-04-23 13:10 | 57.33711 | 63.30455 | 12675 ft | 255 kts | 77° |
| 2026-04-23 13:10 | 57.34177 | 63.33622 | 12672 ft | 255 kts | 77° |
| 2026-04-23 13:10 | 57.34636 | 63.36760 | 12673 ft | 255 kts | 77° |
| 2026-04-23 13:10 | 57.35104 | 63.39962 | 12687 ft | 255 kts | 77° |
| 2026-04-23 13:11 | 57.35567 | 63.43124 | 12683 ft | 256 kts | 77° |
| 2026-04-23 13:11 | 57.36029 | 63.46295 | 12666 ft | 256 kts | 77° |
| 2026-04-23 13:11 | 57.36491 | 63.49471 | 12683 ft | 256 kts | 77° |
| 2026-04-23 13:11 | 57.36950 | 63.52633 | 12669 ft | 256 kts | 77° |
| 2026-04-23 13:12 | 57.37410 | 63.55811 | 12666 ft | 256 kts | 77° |
| 2026-04-23 13:12 | 57.37871 | 63.59001 | 12681 ft | 256 kts | 77° |
| 2026-04-23 13:12 | 57.38326 | 63.62157 | 12673 ft | 257 kts | 77° |
| 2026-04-23 13:12 | 57.38789 | 63.65369 | 12653 ft | 257 kts | 78° |
| 2026-04-23 13:13 | 57.39247 | 63.68554 | 12681 ft | 256 kts | 78° |
| 2026-04-23 13:13 | 57.39705 | 63.71755 | 12679 ft | 256 kts | 78° |
| 2026-04-23 13:13 | 57.40073 | 63.74954 | 12695 ft | 252 kts | 89° |
| 2026-04-23 13:13 | 57.39982 | 63.78124 | 12728 ft | 246 kts | 106° |
| 2026-04-23 13:14 | 57.39577 | 63.81226 | 12660 ft | 247 kts | 111° |
| 2026-04-23 13:14 | 57.39127 | 63.84285 | 12617 ft | 249 kts | 111° |
| 2026-04-23 13:14 | 57.38676 | 63.87343 | 12716 ft | 244 kts | 111° |
| 2026-04-23 13:14 | 57.38229 | 63.90387 | 12692 ft | 245 kts | 111° |
| 2026-04-23 13:15 | 57.37778 | 63.93427 | 12620 ft | 248 kts | 111° |
| 2026-04-23 13:15 | 57.37336 | 63.96497 | 12707 ft | 244 kts | 110° |
| 2026-04-23 13:15 | 57.36919 | 63.99516 | 12731 ft | 244 kts | 110° |
| 2026-04-23 13:15 | 57.36492 | 64.02586 | 12617 ft | 249 kts | 110° |
| 2026-04-23 13:16 | 57.36061 | 64.05695 | 12675 ft | 246 kts | 109° |
| 2026-04-23 13:16 | 57.35642 | 64.08720 | 12729 ft | 244 kts | 109° |
| 2026-04-23 13:16 | 57.35217 | 64.11771 | 12686 ft | 247 kts | 110° |
| 2026-04-23 13:16 | 57.34784 | 64.14867 | 12639 ft | 249 kts | 109° |
| 2026-04-23 13:17 | 57.34352 | 64.17963 | 12731 ft | 245 kts | 109° |
| 2026-04-23 13:17 | 57.33926 | 64.21010 | 12714 ft | 247 kts | 110° |
| 2026-04-23 13:17 | 57.33495 | 64.24070 | 12642 ft | 250 kts | 110° |
| 2026-04-23 13:17 | 57.33057 | 64.27192 | 12717 ft | 246 kts | 110° |
| 2026-04-23 13:18 | 57.32628 | 64.30250 | 12732 ft | 246 kts | 110° |
| 2026-04-23 13:18 | 57.32192 | 64.33320 | 12659 ft | 250 kts | 110° |
| 2026-04-23 13:18 | 57.31760 | 64.36389 | 12705 ft | 248 kts | 109° |
| 2026-04-23 13:18 | 57.31335 | 64.39452 | 12755 ft | 246 kts | 109° |
| 2026-04-23 13:19 | 57.30901 | 64.42552 | 12656 ft | 251 kts | 109° |
| 2026-04-23 13:19 | 57.30463 | 64.45672 | 12678 ft | 249 kts | 109° |
| 2026-04-23 13:19 | 57.30038 | 64.48724 | 12754 ft | 246 kts | 109° |
| 2026-04-23 13:19 | 57.29605 | 64.51806 | 12692 ft | 250 kts | 109° |
| 2026-04-23 13:20 | 57.29169 | 64.54909 | 12678 ft | 252 kts | 109° |
| 2026-04-23 13:20 | 57.28786 | 64.58038 | 12767 ft | 242 kts | 105° |
| 2026-04-23 13:20 | 57.28487 | 64.61032 | 12426 ft | 238 kts | 104° |
| 2026-04-23 13:20 | 57.28216 | 64.64005 | 12114 ft | 233 kts | 104° |
| 2026-04-23 13:21 | 57.27959 | 64.66951 | 11729 ft | 231 kts | 105° |
| 2026-04-23 13:21 | 57.27683 | 64.69838 | 11373 ft | 229 kts | 105° |
| 2026-04-23 13:21 | 57.27408 | 64.72733 | 10950 ft | 230 kts | 105° |
| 2026-04-23 13:21 | 57.27130 | 64.75614 | 10551 ft | 229 kts | 105° |
| 2026-04-23 13:22 | 57.26875 | 64.78477 | 10199 ft | 226 kts | 104° |
| 2026-04-23 13:22 | 57.26619 | 64.81340 | 9819 ft | 225 kts | 105° |
| 2026-04-23 13:22 | 57.26353 | 64.84181 | 9425 ft | 225 kts | 105° |
| 2026-04-23 13:22 | 57.26101 | 64.87000 | 9047 ft | 223 kts | 104° |
| 2026-04-23 13:23 | 57.25866 | 64.89808 | 8712 ft | 221 kts | 104° |
| 2026-04-23 13:23 | 57.25617 | 64.92596 | 8323 ft | 220 kts | 105° |
| 2026-04-23 13:23 | 57.25371 | 64.95373 | 7952 ft | 219 kts | 105° |
| 2026-04-23 13:23 | 57.25143 | 64.98137 | 7577 ft | 218 kts | 104° |
| 2026-04-23 13:24 | 57.24956 | 65.00886 | 7194 ft | 219 kts | 103° |
| 2026-04-23 13:24 | 57.24780 | 65.03654 | 6863 ft | 216 kts | 103° |
| 2026-04-23 13:24 | 57.24618 | 65.06377 | 6516 ft | 215 kts | 103° |
| 2026-04-23 13:24 | 57.24456 | 65.09126 | 6126 ft | 215 kts | 102° |
| 2026-04-23 13:25 | 57.24305 | 65.11860 | 5784 ft | 213 kts | 102° |
| 2026-04-23 13:25 | 57.24180 | 65.14565 | 5458 ft | 214 kts | 100° |
| 2026-04-23 13:25 | 57.24040 | 65.17286 | 5331 ft | 211 kts | 103° |
| 2026-04-23 13:25 | 57.23827 | 65.19869 | 5342 ft | 201 kts | 107° |
| 2026-04-23 13:26 | 57.23550 | 65.22385 | 5229 ft | 200 kts | 108° |
| 2026-04-23 13:26 | 57.23265 | 65.24887 | 5158 ft | 197 kts | 108° |
| 2026-04-23 13:26 | 57.22990 | 65.27286 | 5138 ft | 193 kts | 108° |
| 2026-04-23 13:26 | 57.22741 | 65.29726 | 5075 ft | 191 kts | 107° |
| 2026-04-23 13:27 | 57.22492 | 65.32121 | 5017 ft | 189 kts | 109° |
| 2026-04-23 13:27 | 57.22182 | 65.34457 | 4914 ft | 190 kts | 111° |
| 2026-04-23 13:27 | 57.21851 | 65.36791 | 4840 ft | 189 kts | 110° |
| 2026-04-23 13:27 | 57.21798 | 65.39264 | 4635 ft | 200 kts | 84° |
| 2026-04-23 13:28 | 57.22371 | 65.41616 | 4287 ft | 207 kts | 53° |
| 2026-04-23 13:28 | 57.23459 | 65.43303 | 4093 ft | 200 kts | 34° |
| 2026-04-23 13:28 | 57.24549 | 65.44762 | 4016 ft | 189 kts | 35° |
| 2026-04-23 13:28 | 57.25617 | 65.46184 | 3627 ft | 197 kts | 33° |
| 2026-04-23 13:29 | 57.26772 | 65.47496 | 3445 ft | 191 kts | 29° |
| 2026-04-23 13:29 | 57.27895 | 65.48772 | 3214 ft | 190 kts | 33° |
| 2026-04-23 13:29 | 57.28930 | 65.50263 | 2925 ft | 193 kts | 40° |
| 2026-04-23 13:29 | 57.29950 | 65.51851 | 2943 ft | 187 kts | 41° |
| 2026-04-23 13:30 | 57.30930 | 65.53363 | 2939 ft | 184 kts | 39° |
| 2026-04-23 13:30 | 57.31961 | 65.54848 | 2806 ft | 189 kts | 38° |
| 2026-04-23 13:30 | 57.32998 | 65.56316 | 2824 ft | 185 kts | 38° |
| 2026-04-23 13:30 | 57.33989 | 65.57788 | 2794 ft | 184 kts | 43° |
| 2026-04-23 13:31 | 57.34742 | 65.59699 | 2637 ft | 186 kts | 71° |
| 2026-04-23 13:31 | 57.34857 | 65.61979 | 2665 ft | 171 kts | 106° |
| 2026-04-23 13:31 | 57.34360 | 65.63834 | 2660 ft | 159 kts | 139° |
| 2026-04-23 13:31 | 57.33461 | 65.64841 | 2612 ft | 149 kts | 169° |
| 2026-04-23 13:32 | 57.32452 | 65.64729 | 2452 ft | 150 kts | 203° |
| 2026-04-23 13:32 | 57.31672 | 65.63481 | 2456 ft | 145 kts | 229° |
| 2026-04-23 13:32 | 57.31032 | 65.62072 | 2403 ft | 146 kts | 225° |
| 2026-04-23 13:32 | 57.30426 | 65.60567 | 2395 ft | 145 kts | 234° |
| 2026-04-23 13:33 | 57.29919 | 65.59043 | 2372 ft | 141 kts | 236° |
| 2026-04-23 13:33 | 57.29397 | 65.57463 | 2205 ft | 148 kts | 235° |
| 2026-04-23 13:33 | 57.28878 | 65.55811 | 2124 ft | 145 kts | 237° |
| 2026-04-23 13:33 | 57.28413 | 65.54216 | 2088 ft | 141 kts | 238° |
| 2026-04-23 13:34 | 57.27976 | 65.52622 | 2065 ft | 133 kts | 239° |
| 2026-04-23 13:34 | 57.27587 | 65.51190 | 2101 ft | 123 kts | 238° |
| 2026-04-23 13:34 | 57.27166 | 65.49746 | 1891 ft | 130 kts | 236° |
| 2026-04-23 13:34 | 57.26714 | 65.48349 | 1846 ft | 124 kts | 234° |
| 2026-04-23 13:35 | 57.26266 | 65.46986 | 1834 ft | 122 kts | 236° |
| 2026-04-23 13:35 | 57.25851 | 65.45707 | 1919 ft | 111 kts | 234° |
| 2026-04-23 13:35 | 57.25417 | 65.44495 | 1848 ft | 115 kts | 230° |
| 2026-04-23 13:35 | 57.24990 | 65.43256 | 1846 ft | 112 kts | 236° |
| 2026-04-23 13:36 | 57.24571 | 65.42041 | 1674 ft | 116 kts | 230° |
| 2026-04-23 13:36 | 57.24046 | 65.40923 | 1502 ft | 115 kts | 223° |
| 2026-04-23 13:36 | 57.23472 | 65.39932 | 1376 ft | 112 kts | 220° |
| 2026-04-23 13:36 | 57.22887 | 65.38960 | 1240 ft | 112 kts | 219° |
| 2026-04-23 13:37 | 57.22267 | 65.38087 | 1096 ft | 113 kts | 214° |
| 2026-04-23 13:37 | 57.21611 | 65.37264 | 998 ft | 113 kts | 213° |
| 2026-04-23 13:37 | 57.20976 | 65.36440 | 909 ft | 112 kts | 221° |
| 2026-04-23 13:37 | 57.20474 | 65.35338 | 763 ft | 115 kts | 233° |
| 2026-04-23 13:38 | 57.19965 | 65.34174 | 627 ft | 116 kts | 225° |
| 2026-04-23 13:38 | 57.19406 | 65.33137 | 520 ft | 115 kts | 226° |
| 2026-04-23 13:38 | 57.18863 | 65.32038 | 389 ft | 115 kts | 228° |
| 2026-04-23 13:38 | 57.18374 | 65.31045 | 352 ft | 86 kts | 225° |
| 2026-04-23 13:39 | 57.18077 | 65.30443 | 357 ft | 45 kts | 229° |
| 2026-04-23 13:39 | 57.17914 | 65.30112 | 361 ft | 30 kts | 226° |
| 2026-04-23 13:39 | 57.17785 | 65.29857 | 366 ft | 25 kts | 225° |
| 2026-04-23 13:39 | 57.17653 | 65.29585 | 370 ft | 32 kts | 226° |
| 2026-04-23 13:40 | 57.17516 | 65.29325 | 374 ft | 18 kts | 197° |
| 2026-04-23 13:40 | 57.17427 | 65.29433 | 374 ft | 13 kts | 137° |
| 2026-04-23 13:40 | 57.17377 | 65.29536 | 374 ft | 8 kts | 102° |
| 2026-04-23 13:40 | 57.17406 | 65.29637 | 375 ft | 18 kts | 43° |
| 2026-04-23 13:41 | 57.17540 | 65.29907 | 372 ft | 36 kts | 49° |
| 2026-04-23 13:41 | 57.17701 | 65.30235 | 365 ft | 32 kts | 47° |
| 2026-04-23 13:41 | 57.17849 | 65.30532 | 360 ft | 30 kts | 48° |
| 2026-04-23 13:41 | 57.17980 | 65.30801 | 355 ft | 26 kts | 46° |
| 2026-04-23 13:42 | 57.18100 | 65.31040 | 352 ft | 23 kts | 48° |
| 2026-04-23 13:42 | 57.18202 | 65.31250 | 349 ft | 20 kts | 48° |
| 2026-04-23 13:42 | 57.18309 | 65.31462 | 346 ft | 28 kts | 47° |
| 2026-04-23 13:42 | 57.18436 | 65.31721 | 343 ft | 23 kts | 52° |
| 2026-04-23 13:43 | 57.18457 | 65.32012 | 339 ft | 26 kts | 88° |
| 2026-04-23 13:43 | 57.18463 | 65.32320 | 340 ft | 21 kts | 89° |
| 2026-04-23 13:43 | 57.18470 | 65.32606 | 337 ft | 29 kts | 89° |
| 2026-04-23 13:43 | 57.18475 | 65.32965 | 328 ft | 27 kts | 87° |
| 2026-04-23 13:44 | 57.18473 | 65.33296 | 325 ft | 23 kts | 114° |
| 2026-04-23 13:44 | 57.18330 | 65.33581 | 331 ft | 45 kts | 136° |
| 2026-04-23 13:44 | 57.18124 | 65.33967 | 336 ft | 39 kts | 136° |
| 2026-04-23 13:44 | 57.17954 | 65.34277 | 337 ft | 28 kts | 136° |
| 2026-04-23 13:45 | 57.17903 | 65.34513 | 335 ft | 19 kts | 46° |
| 2026-04-23 13:45 | 57.18006 | 65.34713 | 332 ft | 21 kts | 67° |
| 2026-04-23 13:45 | 57.17950 | 65.34840 | 332 ft | 12 kts | 134° |
| 2026-04-23 13:45 | 57.17864 | 65.34996 | 334 ft | 15 kts | 136° |
| 2026-04-23 13:46 | 57.17796 | 65.35043 | 335 ft | 9 kts | 214° |
| 2026-04-23 13:46 | 57.17761 | 65.35038 | 335 ft | 4 kts | 107° |
| 2026-04-23 13:46 | 57.17770 | 65.35075 | 335 ft | 0 kts | 44° |